sensor_id;sensor_type;location;lat;lon;timestamp;pressure;altitude;pressure_sealevel;temperature;humidity
21111;BME280;10713;51.912;4.494;2022-10-16T00:01:23;100836.38;;;15.60;100.00
21111;BME280;10713;51.912;4.494;2022-10-16T00:03:50;100845.81;;;15.66;100.00
21111;BME280;10713;51.912;4.494;2022-10-16T00:06:16;100854.97;;;15.76;100.00
21111;BME280;10713;51.912;4.494;2022-10-16T00:08:42;100852.22;;;15.77;100.00
21111;BME280;10713;51.912;4.494;2022-10-16T00:13:36;100851.44;;;15.75;100.00
21111;BME280;10713;51.912;4.494;2022-10-16T00:16:03;100854.28;;;15.72;100.00
21111;BME280;10713;51.912;4.494;2022-10-16T00:18:29;100850.00;;;15.70;100.00
21111;BME280;10713;51.912;4.494;2022-10-16T00:20:55;100860.97;;;15.80;100.00
21111;BME280;10713;51.912;4.494;2022-10-16T00:23:21;100852.41;;;15.74;100.00
21111;BME280;10713;51.912;4.494;2022-10-16T00:25:58;100842.50;;;15.76;100.00
21111;BME280;10713;51.912;4.494;2022-10-16T00:28:24;100861.44;;;15.72;100.00
21111;BME280;10713;51.912;4.494;2022-10-16T00:30:49;100861.19;;;15.61;100.00
21111;BME280;10713;51.912;4.494;2022-10-16T00:33:14;100862.88;;;15.62;100.00
21111;BME280;10713;51.912;4.494;2022-10-16T00:35:40;100849.09;;;15.55;100.00
21111;BME280;10713;51.912;4.494;2022-10-16T00:38:05;100852.91;;;15.51;100.00
21111;BME280;10713;51.912;4.494;2022-10-16T00:40:31;100859.81;;;15.53;100.00
21111;BME280;10713;51.912;4.494;2022-10-16T00:42:57;100866.09;;;15.52;100.00
21111;BME280;10713;51.912;4.494;2022-10-16T00:45:22;100853.34;;;15.43;100.00
21111;BME280;10713;51.912;4.494;2022-10-16T00:47:48;100845.94;;;15.34;100.00
21111;BME280;10713;51.912;4.494;2022-10-16T00:50:32;100854.53;;;15.23;100.00
21111;BME280;10713;51.912;4.494;2022-10-16T00:52:59;100835.69;;;15.12;100.00
21111;BME280;10713;51.912;4.494;2022-10-16T00:55:26;100829.00;;;15.05;100.00
21111;BME280;10713;51.912;4.494;2022-10-16T00:57:53;100823.34;;;15.11;100.00
21111;BME280;10713;51.912;4.494;2022-10-16T01:00:21;100832.78;;;15.17;100.00
21111;BME280;10713;51.912;4.494;2022-10-16T01:02:54;100843.66;;;15.12;100.00
21111;BME280;10713;51.912;4.494;2022-10-16T01:05:22;100846.56;;;15.07;100.00
21111;BME280;10713;51.912;4.494;2022-10-16T01:10:35;100848.31;;;15.08;100.00
21111;BME280;10713;51.912;4.494;2022-10-16T01:13:24;100857.13;;;15.09;100.00
21111;BME280;10713;51.912;4.494;2022-10-16T01:21:11;100853.31;;;14.83;100.00
21111;BME280;10713;51.912;4.494;2022-10-16T01:32:16;100867.19;;;14.72;100.00
21111;BME280;10713;51.912;4.494;2022-10-16T01:34:51;100868.34;;;14.68;100.00
21111;BME280;10713;51.912;4.494;2022-10-16T01:37:24;100870.72;;;14.73;100.00
21111;BME280;10713;51.912;4.494;2022-10-16T01:39:55;100873.38;;;14.73;100.00
21111;BME280;10713;51.912;4.494;2022-10-16T01:42:28;100869.59;;;14.61;100.00
21111;BME280;10713;51.912;4.494;2022-10-16T01:44:58;100873.09;;;14.61;100.00
21111;BME280;10713;51.912;4.494;2022-10-16T01:47:25;100863.25;;;14.63;100.00
21111;BME280;10713;51.912;4.494;2022-10-16T01:49:52;100862.81;;;14.55;100.00
21111;BME280;10713;51.912;4.494;2022-10-16T01:52:21;100864.00;;;14.50;100.00
21111;BME280;10713;51.912;4.494;2022-10-16T01:54:50;100871.50;;;14.41;100.00
21111;BME280;10713;51.912;4.494;2022-10-16T01:57:18;100871.31;;;14.62;100.00
21111;BME280;10713;51.912;4.494;2022-10-16T01:59:51;100871.81;;;14.84;100.00
21111;BME280;10713;51.912;4.494;2022-10-16T02:02:20;100863.25;;;14.95;100.00
21111;BME280;10713;51.912;4.494;2022-10-16T02:04:52;100871.56;;;14.73;100.00
21111;BME280;10713;51.912;4.494;2022-10-16T02:07:19;100876.31;;;14.68;100.00
21111;BME280;10713;51.912;4.494;2022-10-16T02:09:45;100879.88;;;14.67;100.00
21111;BME280;10713;51.912;4.494;2022-10-16T02:12:18;100884.84;;;14.73;100.00
21111;BME280;10713;51.912;4.494;2022-10-16T02:14:46;100880.66;;;14.69;100.00
21111;BME280;10713;51.912;4.494;2022-10-16T02:17:14;100883.81;;;14.76;100.00
21111;BME280;10713;51.912;4.494;2022-10-16T02:19:40;100879.91;;;14.83;100.00
21111;BME280;10713;51.912;4.494;2022-10-16T02:22:10;100888.47;;;14.88;100.00
21111;BME280;10713;51.912;4.494;2022-10-16T02:27:49;100872.06;;;14.96;100.00
21111;BME280;10713;51.912;4.494;2022-10-16T02:30:22;100884.50;;;14.95;100.00
21111;BME280;10713;51.912;4.494;2022-10-16T02:32:51;100883.78;;;15.07;100.00
21111;BME280;10713;51.912;4.494;2022-10-16T02:35:19;100888.44;;;15.04;100.00
21111;BME280;10713;51.912;4.494;2022-10-16T02:37:46;100891.94;;;15.04;100.00
21111;BME280;10713;51.912;4.494;2022-10-16T02:40:13;100887.41;;;15.06;100.00
21111;BME280;10713;51.912;4.494;2022-10-16T02:42:40;100878.22;;;14.96;100.00
21111;BME280;10713;51.912;4.494;2022-10-16T02:45:06;100884.59;;;14.94;100.00
21111;BME280;10713;51.912;4.494;2022-10-16T02:47:32;100885.72;;;14.90;100.00
21111;BME280;10713;51.912;4.494;2022-10-16T02:49:58;100878.94;;;14.84;100.00
21111;BME280;10713;51.912;4.494;2022-10-16T02:52:23;100876.88;;;14.89;100.00
21111;BME280;10713;51.912;4.494;2022-10-16T02:54:49;100885.03;;;14.86;100.00
21111;BME280;10713;51.912;4.494;2022-10-16T02:57:14;100874.75;;;14.80;100.00
21111;BME280;10713;51.912;4.494;2022-10-16T02:59:39;100881.00;;;14.79;100.00
21111;BME280;10713;51.912;4.494;2022-10-16T03:02:05;100882.72;;;14.80;100.00
21111;BME280;10713;51.912;4.494;2022-10-16T03:04:30;100878.78;;;14.71;100.00
21111;BME280;10713;51.912;4.494;2022-10-16T03:06:55;100891.72;;;14.77;100.00
21111;BME280;10713;51.912;4.494;2022-10-16T03:09:22;100891.03;;;14.74;100.00
21111;BME280;10713;51.912;4.494;2022-10-16T03:11:47;100896.00;;;14.80;100.00
21111;BME280;10713;51.912;4.494;2022-10-16T03:14:12;100896.09;;;14.78;100.00
21111;BME280;10713;51.912;4.494;2022-10-16T03:16:38;100904.22;;;14.75;100.00
21111;BME280;10713;51.912;4.494;2022-10-16T03:19:03;100908.53;;;14.78;100.00
21111;BME280;10713;51.912;4.494;2022-10-16T03:21:29;100909.38;;;14.78;100.00
21111;BME280;10713;51.912;4.494;2022-10-16T03:23:54;100911.69;;;14.84;100.00
21111;BME280;10713;51.912;4.494;2022-10-16T03:26:20;100924.13;;;14.84;100.00
21111;BME280;10713;51.912;4.494;2022-10-16T03:28:45;100920.69;;;14.82;100.00
21111;BME280;10713;51.912;4.494;2022-10-16T03:31:10;100920.00;;;14.78;100.00
21111;BME280;10713;51.912;4.494;2022-10-16T03:33:36;100917.16;;;14.81;100.00
21111;BME280;10713;51.912;4.494;2022-10-16T03:36:01;100919.94;;;14.80;100.00
21111;BME280;10713;51.912;4.494;2022-10-16T03:38:26;100927.97;;;14.78;100.00
21111;BME280;10713;51.912;4.494;2022-10-16T03:40:52;100925.31;;;14.62;100.00
21111;BME280;10713;51.912;4.494;2022-10-16T03:43:17;100930.31;;;14.51;100.00
21111;BME280;10713;51.912;4.494;2022-10-16T03:45:43;100936.34;;;14.55;100.00
21111;BME280;10713;51.912;4.494;2022-10-16T03:48:08;100934.91;;;14.48;100.00
21111;BME280;10713;51.912;4.494;2022-10-16T03:50:33;100935.88;;;14.47;100.00
21111;BME280;10713;51.912;4.494;2022-10-16T03:52:59;100943.84;;;14.47;100.00
21111;BME280;10713;51.912;4.494;2022-10-16T03:55:24;100936.19;;;14.58;100.00
21111;BME280;10713;51.912;4.494;2022-10-16T03:57:49;100930.09;;;14.56;100.00
21111;BME280;10713;51.912;4.494;2022-10-16T04:00:15;100943.13;;;14.60;100.00
21111;BME280;10713;51.912;4.494;2022-10-16T04:02:40;100945.63;;;14.63;100.00
21111;BME280;10713;51.912;4.494;2022-10-16T04:05:06;100947.59;;;14.60;100.00
21111;BME280;10713;51.912;4.494;2022-10-16T04:07:31;100956.09;;;14.49;100.00
21111;BME280;10713;51.912;4.494;2022-10-16T04:09:57;100956.94;;;14.50;100.00
21111;BME280;10713;51.912;4.494;2022-10-16T04:12:24;100965.09;;;14.47;100.00
21111;BME280;10713;51.912;4.494;2022-10-16T04:14:49;100963.63;;;14.41;100.00
21111;BME280;10713;51.912;4.494;2022-10-16T04:17:14;100961.66;;;14.45;100.00
21111;BME280;10713;51.912;4.494;2022-10-16T04:19:40;100957.28;;;14.43;100.00
21111;BME280;10713;51.912;4.494;2022-10-16T04:22:05;100965.25;;;14.43;100.00
21111;BME280;10713;51.912;4.494;2022-10-16T04:24:30;100967.22;;;14.40;100.00
21111;BME280;10713;51.912;4.494;2022-10-16T04:26:55;100982.22;;;14.41;100.00
21111;BME280;10713;51.912;4.494;2022-10-16T04:29:21;100976.09;;;14.39;100.00
21111;BME280;10713;51.912;4.494;2022-10-16T04:31:47;100989.16;;;14.43;100.00
21111;BME280;10713;51.912;4.494;2022-10-16T04:34:12;100992.16;;;14.37;100.00
21111;BME280;10713;51.912;4.494;2022-10-16T04:36:37;100999.66;;;14.29;100.00
21111;BME280;10713;51.912;4.494;2022-10-16T04:39:03;100995.81;;;14.35;100.00
21111;BME280;10713;51.912;4.494;2022-10-16T04:41:28;100998.31;;;14.38;100.00
21111;BME280;10713;51.912;4.494;2022-10-16T04:43:53;101014.78;;;14.45;100.00
21111;BME280;10713;51.912;4.494;2022-10-16T04:46:19;101011.59;;;14.38;100.00
21111;BME280;10713;51.912;4.494;2022-10-16T04:48:44;101022.91;;;14.41;100.00
21111;BME280;10713;51.912;4.494;2022-10-16T04:51:10;101014.00;;;14.42;100.00
21111;BME280;10713;51.912;4.494;2022-10-16T04:53:35;101031.50;;;14.47;100.00
21111;BME280;10713;51.912;4.494;2022-10-16T04:56:01;101028.78;;;14.48;100.00
21111;BME280;10713;51.912;4.494;2022-10-16T04:58:27;101029.84;;;14.61;100.00
21111;BME280;10713;51.912;4.494;2022-10-16T05:00:52;101023.63;;;14.62;100.00
21111;BME280;10713;51.912;4.494;2022-10-16T05:03:18;101033.34;;;14.62;100.00
21111;BME280;10713;51.912;4.494;2022-10-16T05:05:45;101037.06;;;14.59;100.00
21111;BME280;10713;51.912;4.494;2022-10-16T05:08:12;101033.91;;;14.69;100.00
21111;BME280;10713;51.912;4.494;2022-10-16T05:10:38;101038.22;;;14.71;100.00
21111;BME280;10713;51.912;4.494;2022-10-16T05:13:03;101043.53;;;14.71;100.00
21111;BME280;10713;51.912;4.494;2022-10-16T05:15:29;101051.41;;;14.73;100.00
21111;BME280;10713;51.912;4.494;2022-10-16T05:17:55;101051.06;;;14.79;100.00
21111;BME280;10713;51.912;4.494;2022-10-16T05:20:21;101042.06;;;14.81;100.00
21111;BME280;10713;51.912;4.494;2022-10-16T05:22:47;101048.00;;;14.86;100.00
21111;BME280;10713;51.912;4.494;2022-10-16T05:25:13;101041.09;;;15.00;100.00
21111;BME280;10713;51.912;4.494;2022-10-16T05:27:38;101054.03;;;15.06;100.00
21111;BME280;10713;51.912;4.494;2022-10-16T05:30:04;101059.03;;;15.12;100.00
21111;BME280;10713;51.912;4.494;2022-10-16T05:32:29;101062.94;;;14.89;100.00
21111;BME280;10713;51.912;4.494;2022-10-16T05:34:54;101070.06;;;14.89;100.00
21111;BME280;10713;51.912;4.494;2022-10-16T05:37:20;101078.53;;;14.95;100.00
21111;BME280;10713;51.912;4.494;2022-10-16T05:39:45;101074.34;;;14.91;100.00
21111;BME280;10713;51.912;4.494;2022-10-16T05:42:11;101081.03;;;14.98;100.00
21111;BME280;10713;51.912;4.494;2022-10-16T05:44:36;101076.75;;;14.96;100.00
21111;BME280;10713;51.912;4.494;2022-10-16T05:47:01;101079.34;;;14.97;100.00
21111;BME280;10713;51.912;4.494;2022-10-16T05:49:27;101077.34;;;15.01;100.00
21111;BME280;10713;51.912;4.494;2022-10-16T05:51:52;101088.69;;;15.04;100.00
21111;BME280;10713;51.912;4.494;2022-10-16T05:54:17;101096.91;;;15.00;100.00
21111;BME280;10713;51.912;4.494;2022-10-16T05:56:43;101098.63;;;15.01;100.00
21111;BME280;10713;51.912;4.494;2022-10-16T05:59:08;101093.13;;;15.04;100.00
21111;BME280;10713;51.912;4.494;2022-10-16T06:01:33;101092.63;;;14.97;100.00
21111;BME280;10713;51.912;4.494;2022-10-16T06:04:00;101102.47;;;14.95;100.00
21111;BME280;10713;51.912;4.494;2022-10-16T06:06:27;101099.31;;;15.04;100.00
21111;BME280;10713;51.912;4.494;2022-10-16T06:08:55;101099.56;;;15.00;100.00
21111;BME280;10713;51.912;4.494;2022-10-16T06:11:23;101104.47;;;15.07;100.00
21111;BME280;10713;51.912;4.494;2022-10-16T06:13:50;101100.50;;;14.99;100.00
21111;BME280;10713;51.912;4.494;2022-10-16T06:16:15;101097.00;;;14.98;100.00
21111;BME280;10713;51.912;4.494;2022-10-16T06:18:41;101106.25;;;15.07;100.00
21111;BME280;10713;51.912;4.494;2022-10-16T06:21:12;101108.59;;;15.13;100.00
21111;BME280;10713;51.912;4.494;2022-10-16T06:23:37;101116.06;;;15.06;100.00
21111;BME280;10713;51.912;4.494;2022-10-16T06:26:11;101115.09;;;15.07;100.00
21111;BME280;10713;51.912;4.494;2022-10-16T06:28:37;101117.31;;;14.99;100.00
21111;BME280;10713;51.912;4.494;2022-10-16T06:31:04;101116.28;;;15.02;100.00
21111;BME280;10713;51.912;4.494;2022-10-16T06:33:30;101125.38;;;14.98;100.00
21111;BME280;10713;51.912;4.494;2022-10-16T06:36:10;101126.22;;;14.98;100.00
21111;BME280;10713;51.912;4.494;2022-10-16T06:38:36;101133.13;;;15.02;100.00
21111;BME280;10713;51.912;4.494;2022-10-16T06:41:02;101133.97;;;15.03;100.00
21111;BME280;10713;51.912;4.494;2022-10-16T06:43:31;101136.97;;;15.13;100.00
21111;BME280;10713;51.912;4.494;2022-10-16T06:45:58;101143.16;;;15.13;100.00
21111;BME280;10713;51.912;4.494;2022-10-16T06:48:25;101143.88;;;15.17;100.00
21111;BME280;10713;51.912;4.494;2022-10-16T06:51:04;101151.41;;;15.24;100.00
21111;BME280;10713;51.912;4.494;2022-10-16T06:53:32;101150.06;;;15.33;100.00
21111;BME280;10713;51.912;4.494;2022-10-16T06:56:06;101157.28;;;15.31;100.00
21111;BME280;10713;51.912;4.494;2022-10-16T06:58:32;101155.03;;;15.23;100.00
21111;BME280;10713;51.912;4.494;2022-10-16T07:00:58;101156.91;;;15.21;100.00
21111;BME280;10713;51.912;4.494;2022-10-16T07:03:23;101164.09;;;15.19;100.00
21111;BME280;10713;51.912;4.494;2022-10-16T07:05:48;101177.69;;;15.30;100.00
21111;BME280;10713;51.912;4.494;2022-10-16T07:08:14;101180.09;;;15.35;100.00
21111;BME280;10713;51.912;4.494;2022-10-16T07:10:39;101195.06;;;15.53;100.00
21111;BME280;10713;51.912;4.494;2022-10-16T07:13:04;101191.69;;;16.15;100.00
21111;BME280;10713;51.912;4.494;2022-10-16T07:15:30;101193.06;;;17.27;100.00
21111;BME280;10713;51.912;4.494;2022-10-16T07:17:55;101189.16;;;18.57;100.00
21111;BME280;10713;51.912;4.494;2022-10-16T07:20:21;101185.91;;;19.81;100.00
21111;BME280;10713;51.912;4.494;2022-10-16T07:22:46;101184.94;;;20.78;100.00
21111;BME280;10713;51.912;4.494;2022-10-16T07:25:12;101182.59;;;21.43;100.00
21111;BME280;10713;51.912;4.494;2022-10-16T07:27:37;101193.38;;;22.09;100.00
21111;BME280;10713;51.912;4.494;2022-10-16T07:30:03;101195.91;;;22.86;100.00
21111;BME280;10713;51.912;4.494;2022-10-16T07:32:29;101192.38;;;23.68;100.00
21111;BME280;10713;51.912;4.494;2022-10-16T07:34:54;101192.97;;;24.21;100.00
21111;BME280;10713;51.912;4.494;2022-10-16T07:37:21;101205.53;;;24.61;100.00
21111;BME280;10713;51.912;4.494;2022-10-16T07:39:46;101203.63;;;24.91;100.00
21111;BME280;10713;51.912;4.494;2022-10-16T07:42:11;101206.59;;;25.17;100.00
21111;BME280;10713;51.912;4.494;2022-10-16T07:44:37;101195.38;;;25.02;100.00
21111;BME280;10713;51.912;4.494;2022-10-16T07:47:02;101199.88;;;25.11;100.00
21111;BME280;10713;51.912;4.494;2022-10-16T07:49:28;101214.22;;;25.69;100.00
21111;BME280;10713;51.912;4.494;2022-10-16T07:51:53;101213.94;;;25.99;100.00
21111;BME280;10713;51.912;4.494;2022-10-16T07:54:18;101219.78;;;26.40;100.00
21111;BME280;10713;51.912;4.494;2022-10-16T07:56:44;101220.38;;;26.62;100.00
21111;BME280;10713;51.912;4.494;2022-10-16T07:59:09;101217.53;;;26.89;100.00
21111;BME280;10713;51.912;4.494;2022-10-16T08:01:34;101219.91;;;27.36;100.00
21111;BME280;10713;51.912;4.494;2022-10-16T08:04:00;101230.69;;;27.89;100.00
21111;BME280;10713;51.912;4.494;2022-10-16T08:06:25;101235.69;;;28.18;100.00
21111;BME280;10713;51.912;4.494;2022-10-16T08:08:51;101230.53;;;27.90;95.67
21111;BME280;10713;51.912;4.494;2022-10-16T08:11:16;101241.19;;;27.83;96.67
21111;BME280;10713;51.912;4.494;2022-10-16T08:13:42;101231.91;;;27.60;85.29
21111;BME280;10713;51.912;4.494;2022-10-16T08:16:08;101256.56;;;27.49;88.15
21111;BME280;10713;51.912;4.494;2022-10-16T08:18:36;101251.84;;;27.51;83.33
21111;BME280;10713;51.912;4.494;2022-10-16T08:21:02;101260.22;;;27.92;81.43
21111;BME280;10713;51.912;4.494;2022-10-16T08:23:28;101254.34;;;28.13;78.54
21111;BME280;10713;51.912;4.494;2022-10-16T08:25:54;101260.78;;;28.70;76.15
21111;BME280;10713;51.912;4.494;2022-10-16T08:28:21;101252.59;;;28.54;67.26
21111;BME280;10713;51.912;4.494;2022-10-16T08:30:46;101252.50;;;28.13;72.32
21111;BME280;10713;51.912;4.494;2022-10-16T08:33:11;101266.09;;;27.79;72.86
21111;BME280;10713;51.912;4.494;2022-10-16T08:35:37;101278.81;;;27.87;73.22
21111;BME280;10713;51.912;4.494;2022-10-16T08:38:06;101285.97;;;28.38;71.39
21111;BME280;10713;51.912;4.494;2022-10-16T08:40:33;101278.44;;;28.99;68.63
21111;BME280;10713;51.912;4.494;2022-10-16T08:48:27;101292.03;;;29.32;61.58
21111;BME280;10713;51.912;4.494;2022-10-16T08:50:55;101296.97;;;29.20;62.59
21111;BME280;10713;51.912;4.494;2022-10-16T08:53:30;101295.09;;;28.96;57.33
21111;BME280;10713;51.912;4.494;2022-10-16T08:55:56;101307.75;;;28.55;62.99
21111;BME280;10713;51.912;4.494;2022-10-16T08:58:27;101319.84;;;27.83;61.42
21111;BME280;10713;51.912;4.494;2022-10-16T09:00:55;101319.13;;;27.11;64.80
21111;BME280;10713;51.912;4.494;2022-10-16T09:20:00;101330.03;;;26.66;69.73
21111;BME280;10713;51.912;4.494;2022-10-16T09:22:32;101322.84;;;26.74;67.30
21111;BME280;10713;51.912;4.494;2022-10-16T09:25:11;101330.84;;;26.21;66.21
21111;BME280;10713;51.912;4.494;2022-10-16T09:27:37;101335.44;;;25.73;72.14
21111;BME280;10713;51.912;4.494;2022-10-16T09:30:22;101334.97;;;25.78;67.05
21111;BME280;10713;51.912;4.494;2022-10-16T09:32:50;101332.00;;;26.56;69.83
21111;BME280;10713;51.912;4.494;2022-10-16T09:35:38;101340.50;;;27.14;65.79
21111;BME280;10713;51.912;4.494;2022-10-16T09:38:04;101343.78;;;27.88;62.72
21111;BME280;10713;51.912;4.494;2022-10-16T09:40:35;101346.16;;;27.65;63.90
21111;BME280;10713;51.912;4.494;2022-10-16T09:45:31;101346.44;;;28.48;60.60
21111;BME280;10713;51.912;4.494;2022-10-16T09:47:56;101345.88;;;28.37;60.74
21111;BME280;10713;51.912;4.494;2022-10-16T09:50:25;101348.75;;;27.75;61.02
21111;BME280;10713;51.912;4.494;2022-10-16T09:53:03;101347.00;;;27.39;59.97
21111;BME280;10713;51.912;4.494;2022-10-16T09:55:29;101352.31;;;27.75;60.97
21111;BME280;10713;51.912;4.494;2022-10-16T09:57:54;101347.06;;;27.48;59.82
21111;BME280;10713;51.912;4.494;2022-10-16T10:00:22;101348.69;;;26.69;59.79
21111;BME280;10713;51.912;4.494;2022-10-16T10:02:48;101357.41;;;26.35;65.51
21111;BME280;10713;51.912;4.494;2022-10-16T10:05:23;101358.69;;;25.37;66.97
21111;BME280;10713;51.912;4.494;2022-10-16T10:07:58;101356.25;;;25.44;68.06
21111;BME280;10713;51.912;4.494;2022-10-16T10:10:29;101363.66;;;24.93;72.53
21111;BME280;10713;51.912;4.494;2022-10-16T10:12:55;101359.97;;;25.13;75.11
21111;BME280;10713;51.912;4.494;2022-10-16T10:15:22;101367.91;;;25.63;72.88
21111;BME280;10713;51.912;4.494;2022-10-16T10:22:55;101368.59;;;25.85;73.67
21111;BME280;10713;51.912;4.494;2022-10-16T10:25:36;101366.75;;;26.23;66.16
21111;BME280;10713;51.912;4.494;2022-10-16T10:30:59;101370.84;;;25.80;67.43
21111;BME280;10713;51.912;4.494;2022-10-16T10:33:34;101379.59;;;25.64;67.27
21111;BME280;10713;51.912;4.494;2022-10-16T10:38:50;101379.59;;;24.96;72.99
21111;BME280;10713;51.912;4.494;2022-10-16T10:46:40;101389.53;;;23.63;79.69
21111;BME280;10713;51.912;4.494;2022-10-16T10:54:57;101411.44;;;22.39;86.26
21111;BME280;10713;51.912;4.494;2022-10-16T11:06:11;101420.94;;;22.66;89.83
21111;BME280;10713;51.912;4.494;2022-10-16T11:08:45;101426.69;;;22.73;86.99
21111;BME280;10713;51.912;4.494;2022-10-16T11:14:15;101425.97;;;22.48;88.71
21111;BME280;10713;51.912;4.494;2022-10-16T11:17:01;101422.44;;;22.47;88.85
21111;BME280;10713;51.912;4.494;2022-10-16T11:19:37;101423.28;;;22.48;90.95
21111;BME280;10713;51.912;4.494;2022-10-16T11:22:13;101429.66;;;22.58;89.78
21111;BME280;10713;51.912;4.494;2022-10-16T11:24:49;101436.97;;;22.56;90.37
21111;BME280;10713;51.912;4.494;2022-10-16T11:27:19;101442.22;;;22.69;93.32
21111;BME280;10713;51.912;4.494;2022-10-16T11:29:55;101444.28;;;22.88;94.63
21111;BME280;10713;51.912;4.494;2022-10-16T11:32:36;101435.84;;;22.92;94.50
21111;BME280;10713;51.912;4.494;2022-10-16T11:35:30;101438.06;;;22.76;89.21
21111;BME280;10713;51.912;4.494;2022-10-16T11:38:02;101438.16;;;22.75;91.06
21111;BME280;10713;51.912;4.494;2022-10-16T11:40:33;101439.53;;;22.69;91.24
21111;BME280;10713;51.912;4.494;2022-10-16T11:43:34;101438.09;;;22.42;83.23
21111;BME280;10713;51.912;4.494;2022-10-16T11:46:08;101446.28;;;22.30;87.56
21111;BME280;10713;51.912;4.494;2022-10-16T11:48:43;101437.72;;;22.24;86.16
21111;BME280;10713;51.912;4.494;2022-10-16T11:54:14;101450.97;;;21.92;86.47
21111;BME280;10713;51.912;4.494;2022-10-16T11:56:43;101456.44;;;21.91;86.68
21111;BME280;10713;51.912;4.494;2022-10-16T12:04:57;101464.88;;;21.97;85.04
21111;BME280;10713;51.912;4.494;2022-10-16T12:07:35;101461.69;;;21.81;85.82
21111;BME280;10713;51.912;4.494;2022-10-16T12:10:17;101470.09;;;21.76;84.31
21111;BME280;10713;51.912;4.494;2022-10-16T12:12:43;101468.63;;;21.72;84.07
21111;BME280;10713;51.912;4.494;2022-10-16T12:15:26;101471.59;;;21.80;79.89
21111;BME280;10713;51.912;4.494;2022-10-16T12:17:52;101470.97;;;21.88;84.10
21111;BME280;10713;51.912;4.494;2022-10-16T12:22:50;101474.09;;;21.71;77.22
21111;BME280;10713;51.912;4.494;2022-10-16T12:25:35;101475.81;;;21.61;97.54
21111;BME280;10713;51.912;4.494;2022-10-16T12:30:41;101476.78;;;21.71;82.15
21111;BME280;10713;51.912;4.494;2022-10-16T12:33:21;101466.66;;;21.74;79.87
21111;BME280;10713;51.912;4.494;2022-10-16T12:35:48;101477.03;;;21.68;81.92
21111;BME280;10713;51.912;4.494;2022-10-16T12:38:36;101474.34;;;21.68;75.39
21111;BME280;10713;51.912;4.494;2022-10-16T12:41:08;101478.34;;;21.62;78.28
21111;BME280;10713;51.912;4.494;2022-10-16T12:43:45;101481.19;;;21.61;81.86
21111;BME280;10713;51.912;4.494;2022-10-16T12:48:38;101484.47;;;21.40;86.35
21111;BME280;10713;51.912;4.494;2022-10-16T12:54:17;101481.91;;;21.39;99.31
21111;BME280;10713;51.912;4.494;2022-10-16T12:57:10;101480.06;;;21.63;100.00
21111;BME280;10713;51.912;4.494;2022-10-16T13:17:20;101505.72;;;22.02;100.00
21111;BME280;10713;51.912;4.494;2022-10-16T13:20:11;101500.28;;;21.80;100.00
21111;BME280;10713;51.912;4.494;2022-10-16T13:22:51;101501.91;;;21.58;98.70
21111;BME280;10713;51.912;4.494;2022-10-16T13:28:28;101512.59;;;21.34;100.00
21111;BME280;10713;51.912;4.494;2022-10-16T13:30:57;101506.72;;;21.42;100.00
21111;BME280;10713;51.912;4.494;2022-10-16T13:33:36;101493.34;;;21.53;100.00
21111;BME280;10713;51.912;4.494;2022-10-16T13:36:04;101493.81;;;21.47;100.00
21111;BME280;10713;51.912;4.494;2022-10-16T13:38:32;101497.84;;;21.53;100.00
21111;BME280;10713;51.912;4.494;2022-10-16T13:41:03;101513.97;;;21.53;100.00
21111;BME280;10713;51.912;4.494;2022-10-16T13:43:50;101500.41;;;21.54;100.00
21111;BME280;10713;51.912;4.494;2022-10-16T13:46:18;101512.09;;;21.66;100.00
21111;BME280;10713;51.912;4.494;2022-10-16T13:48:44;101509.84;;;21.60;100.00
21111;BME280;10713;51.912;4.494;2022-10-16T13:51:14;101511.97;;;21.44;98.32
21111;BME280;10713;51.912;4.494;2022-10-16T13:53:40;101502.56;;;21.38;98.36
21111;BME280;10713;51.912;4.494;2022-10-16T13:56:10;101498.66;;;21.42;100.00
21111;BME280;10713;51.912;4.494;2022-10-16T13:58:36;101499.88;;;21.38;97.43
21111;BME280;10713;51.912;4.494;2022-10-16T14:01:04;101504.88;;;21.43;98.68
21111;BME280;10713;51.912;4.494;2022-10-16T14:03:31;101499.63;;;21.41;95.74
21111;BME280;10713;51.912;4.494;2022-10-16T14:06:00;101503.59;;;21.35;96.00
21111;BME280;10713;51.912;4.494;2022-10-16T14:08:28;101494.41;;;21.27;98.62
21111;BME280;10713;51.912;4.494;2022-10-16T14:10:56;101495.13;;;21.42;100.00
21111;BME280;10713;51.912;4.494;2022-10-16T14:13:29;101490.72;;;21.41;94.62
21111;BME280;10713;51.912;4.494;2022-10-16T14:15:55;101497.81;;;21.29;100.00
21111;BME280;10713;51.912;4.494;2022-10-16T14:18:25;101493.06;;;21.08;99.16
21111;BME280;10713;51.912;4.494;2022-10-16T14:20:52;101494.38;;;21.03;100.00
21111;BME280;10713;51.912;4.494;2022-10-16T14:23:30;101498.66;;;21.05;100.00
21111;BME280;10713;51.912;4.494;2022-10-16T14:28:38;101506.25;;;20.75;100.00
21111;BME280;10713;51.912;4.494;2022-10-16T14:33:49;101494.28;;;20.55;100.00
21111;BME280;10713;51.912;4.494;2022-10-16T14:36:15;101495.75;;;20.59;100.00
21111;BME280;10713;51.912;4.494;2022-10-16T14:38:49;101502.72;;;20.61;100.00
21111;BME280;10713;51.912;4.494;2022-10-16T14:41:23;101483.09;;;20.61;100.00
21111;BME280;10713;51.912;4.494;2022-10-16T14:43:52;101487.03;;;20.68;100.00
21111;BME280;10713;51.912;4.494;2022-10-16T14:46:20;101492.44;;;20.55;100.00
21111;BME280;10713;51.912;4.494;2022-10-16T14:48:49;101491.88;;;20.63;100.00
21111;BME280;10713;51.912;4.494;2022-10-16T14:51:19;101495.72;;;20.72;100.00
21111;BME280;10713;51.912;4.494;2022-10-16T14:53:45;101503.03;;;20.69;100.00
21111;BME280;10713;51.912;4.494;2022-10-16T14:56:23;101501.63;;;20.38;100.00